sensor_id;sensor_type;location;lat;lon;timestamp;pressure;altitude;pressure_sealevel;temperature;humidity
11395;BME280;5753;54.402;10.220;2023-04-01T00:00:47;99697.81;;;13.54;66.03
11395;BME280;5753;54.402;10.220;2023-04-01T00:03:13;99701.16;;;15.08;62.21
11395;BME280;5753;54.402;10.220;2023-04-01T00:05:39;99719.38;;;14.61;64.15
11395;BME280;5753;54.402;10.220;2023-04-01T00:08:06;99716.28;;;14.40;64.50
11395;BME280;5753;54.402;10.220;2023-04-01T00:10:32;99721.50;;;14.37;64.29
11395;BME280;5753;54.402;10.220;2023-04-01T00:12:58;99720.31;;;14.57;62.35
11395;BME280;5753;54.402;10.220;2023-04-01T00:15:24;99715.50;;;14.35;62.76
11395;BME280;5753;54.402;10.220;2023-04-01T00:17:50;99724.47;;;14.67;63.27
11395;BME280;5753;54.402;10.220;2023-04-01T00:20:16;99733.09;;;14.16;65.24
11395;BME280;5753;54.402;10.220;2023-04-01T00:22:42;99732.59;;;14.93;62.31
11395;BME280;5753;54.402;10.220;2023-04-01T00:25:09;99732.47;;;14.01;66.51
11395;BME280;5753;54.402;10.220;2023-04-01T00:27:35;99734.75;;;14.22;64.51
11395;BME280;5753;54.402;10.220;2023-04-01T00:30:01;99742.22;;;14.39;63.30
11395;BME280;5753;54.402;10.220;2023-04-01T00:32:28;99748.03;;;14.99;62.83
11395;BME280;5753;54.402;10.220;2023-04-01T00:34:54;99747.97;;;14.58;63.16
11395;BME280;5753;54.402;10.220;2023-04-01T00:37:21;99751.34;;;15.07;61.82
11395;BME280;5753;54.402;10.220;2023-04-01T00:39:47;99751.19;;;14.18;62.91
11395;BME280;5753;54.402;10.220;2023-04-01T00:42:13;99748.97;;;13.95;63.76
11395;BME280;5753;54.402;10.220;2023-04-01T00:44:40;99751.59;;;14.47;63.48
11395;BME280;5753;54.402;10.220;2023-04-01T00:47:06;99748.72;;;14.63;61.45
11395;BME280;5753;54.402;10.220;2023-04-01T00:49:45;99746.47;;;14.92;61.24
11395;BME280;5753;54.402;10.220;2023-04-01T00:52:15;99754.28;;;14.91;61.28
11395;BME280;5753;54.402;10.220;2023-04-01T00:54:45;99745.84;;;14.30;62.05
11395;BME280;5753;54.402;10.220;2023-04-01T00:57:20;99749.59;;;13.52;65.31
11395;BME280;5753;54.402;10.220;2023-04-01T00:59:49;99753.47;;;14.87;61.58
11395;BME280;5753;54.402;10.220;2023-04-01T01:02:19;99762.38;;;13.65;64.56
11395;BME280;5753;54.402;10.220;2023-04-01T01:04:45;99763.56;;;14.01;64.77
11395;BME280;5753;54.402;10.220;2023-04-01T01:12:45;99766.88;;;14.63;61.37
11395;BME280;5753;54.402;10.220;2023-04-01T01:23:19;99771.34;;;14.55;61.33
11395;BME280;5753;54.402;10.220;2023-04-01T01:34:03;99777.66;;;13.83;63.22
11395;BME280;5753;54.402;10.220;2023-04-01T01:36:33;99778.91;;;14.13;62.92
11395;BME280;5753;54.402;10.220;2023-04-01T01:39:05;99784.03;;;14.19;61.38
11395;BME280;5753;54.402;10.220;2023-04-01T01:41:33;99784.59;;;14.38;61.27
11395;BME280;5753;54.402;10.220;2023-04-01T01:44:02;99793.47;;;13.63;62.20
11395;BME280;5753;54.402;10.220;2023-04-01T01:46:31;99791.03;;;14.11;61.00
11395;BME280;5753;54.402;10.220;2023-04-01T01:48:58;99795.41;;;14.63;59.14
11395;BME280;5753;54.402;10.220;2023-04-01T01:51:27;99787.75;;;14.01;61.20
11395;BME280;5753;54.402;10.220;2023-04-01T01:53:54;99800.06;;;13.87;62.11
11395;BME280;5753;54.402;10.220;2023-04-01T01:56:22;99797.44;;;14.45;59.86
11395;BME280;5753;54.402;10.220;2023-04-01T01:58:53;99807.31;;;14.22;61.51
11395;BME280;5753;54.402;10.220;2023-04-01T02:01:25;99800.78;;;13.31;63.04
11395;BME280;5753;54.402;10.220;2023-04-01T02:03:53;99798.19;;;13.97;61.97
11395;BME280;5753;54.402;10.220;2023-04-01T02:06:23;99805.31;;;13.07;64.32
11395;BME280;5753;54.402;10.220;2023-04-01T02:09:02;99812.16;;;13.13;63.62
11395;BME280;5753;54.402;10.220;2023-04-01T02:11:38;99811.88;;;12.54;66.30
11395;BME280;5753;54.402;10.220;2023-04-01T02:14:11;99819.69;;;13.37;62.49
11395;BME280;5753;54.402;10.220;2023-04-01T02:19:09;99822.09;;;12.68;65.71
11395;BME280;5753;54.402;10.220;2023-04-01T02:21:39;99817.53;;;13.70;62.87
11395;BME280;5753;54.402;10.220;2023-04-01T02:24:10;99824.63;;;13.57;62.98
11395;BME280;5753;54.402;10.220;2023-04-01T02:26:37;99828.16;;;13.50;62.08
11395;BME280;5753;54.402;10.220;2023-04-01T02:29:05;99828.34;;;13.35;61.62
11395;BME280;5753;54.402;10.220;2023-04-01T02:31:32;99831.81;;;12.40;63.88
11395;BME280;5753;54.402;10.220;2023-04-01T02:33:59;99839.31;;;13.55;61.15
11395;BME280;5753;54.402;10.220;2023-04-01T02:36:26;99838.66;;;13.38;61.74
11395;BME280;5753;54.402;10.220;2023-04-01T02:38:52;99845.63;;;13.33;62.24
11395;BME280;5753;54.402;10.220;2023-04-01T02:41:20;99850.09;;;13.91;60.16
11395;BME280;5753;54.402;10.220;2023-04-01T02:43:47;99858.06;;;13.75;59.88
11395;BME280;5753;54.402;10.220;2023-04-01T02:46:13;99862.72;;;13.46;60.87
11395;BME280;5753;54.402;10.220;2023-04-01T02:48:39;99864.81;;;13.07;61.73
11395;BME280;5753;54.402;10.220;2023-04-01T02:51:05;99869.97;;;13.10;62.14
11395;BME280;5753;54.402;10.220;2023-04-01T02:53:31;99857.56;;;12.51;64.91
11395;BME280;5753;54.402;10.220;2023-04-01T02:55:57;99870.00;;;13.07;62.53
11395;BME280;5753;54.402;10.220;2023-04-01T02:58:23;99876.22;;;13.74;60.18
11395;BME280;5753;54.402;10.220;2023-04-01T03:00:49;99881.19;;;13.09;62.14
11395;BME280;5753;54.402;10.220;2023-04-01T03:03:15;99884.81;;;12.93;61.61
11395;BME280;5753;54.402;10.220;2023-04-01T03:05:41;99892.28;;;13.99;59.51
11395;BME280;5753;54.402;10.220;2023-04-01T03:08:08;99888.31;;;13.73;59.52
11395;BME280;5753;54.402;10.220;2023-04-01T03:10:34;99885.72;;;13.72;59.06
11395;BME280;5753;54.402;10.220;2023-04-01T03:13:00;99887.72;;;12.50;62.18
11395;BME280;5753;54.402;10.220;2023-04-01T03:15:26;99902.50;;;12.27;63.11
11395;BME280;5753;54.402;10.220;2023-04-01T03:17:52;99900.22;;;13.04;61.29
11395;BME280;5753;54.402;10.220;2023-04-01T03:20:18;99895.94;;;13.01;61.29
11395;BME280;5753;54.402;10.220;2023-04-01T03:22:45;99909.41;;;13.37;60.03
11395;BME280;5753;54.402;10.220;2023-04-01T03:25:12;99907.59;;;12.44;62.43
11395;BME280;5753;54.402;10.220;2023-04-01T03:27:38;99895.41;;;13.56;58.10
11395;BME280;5753;54.402;10.220;2023-04-01T03:30:06;99898.63;;;12.90;60.01
11395;BME280;5753;54.402;10.220;2023-04-01T03:32:32;99911.09;;;13.41;58.36
11395;BME280;5753;54.402;10.220;2023-04-01T03:34:58;99914.53;;;13.43;59.24
11395;BME280;5753;54.402;10.220;2023-04-01T03:37:24;99921.13;;;13.73;58.06
11395;BME280;5753;54.402;10.220;2023-04-01T03:39:51;99918.50;;;12.84;60.60
11395;BME280;5753;54.402;10.220;2023-04-01T03:42:17;99921.72;;;13.10;60.17
11395;BME280;5753;54.402;10.220;2023-04-01T03:44:43;99934.28;;;12.47;61.58
11395;BME280;5753;54.402;10.220;2023-04-01T03:47:09;99918.56;;;12.72;60.05
11395;BME280;5753;54.402;10.220;2023-04-01T03:49:35;99937.44;;;12.86;60.44
11395;BME280;5753;54.402;10.220;2023-04-01T03:52:02;99940.88;;;13.80;57.73
11395;BME280;5753;54.402;10.220;2023-04-01T03:54:28;99939.34;;;13.62;57.14
11395;BME280;5753;54.402;10.220;2023-04-01T03:56:54;99948.78;;;12.67;59.95
11395;BME280;5753;54.402;10.220;2023-04-01T03:59:21;99956.09;;;11.91;62.46
11395;BME280;5753;54.402;10.220;2023-04-01T04:01:47;99945.88;;;13.09;60.12
11395;BME280;5753;54.402;10.220;2023-04-01T04:04:14;99949.16;;;13.33;58.91
11395;BME280;5753;54.402;10.220;2023-04-01T04:06:40;99963.81;;;12.01;63.73
11395;BME280;5753;54.402;10.220;2023-04-01T04:09:06;99962.31;;;13.01;59.79
11395;BME280;5753;54.402;10.220;2023-04-01T04:11:32;99961.03;;;12.40;62.07
11395;BME280;5753;54.402;10.220;2023-04-01T04:13:59;99970.78;;;11.53;65.79
11395;BME280;5753;54.402;10.220;2023-04-01T04:16:25;99970.75;;;11.79;65.15
11395;BME280;5753;54.402;10.220;2023-04-01T04:18:51;99967.41;;;13.13;61.34
11395;BME280;5753;54.402;10.220;2023-04-01T04:21:17;99972.88;;;12.70;61.43
11395;BME280;5753;54.402;10.220;2023-04-01T04:23:44;99983.25;;;12.67;61.29
11395;BME280;5753;54.402;10.220;2023-04-01T04:26:12;99968.22;;;13.19;60.14
11395;BME280;5753;54.402;10.220;2023-04-01T04:28:40;99991.03;;;12.64;60.76
11395;BME280;5753;54.402;10.220;2023-04-01T04:31:06;99987.16;;;13.29;59.55
11395;BME280;5753;54.402;10.220;2023-04-01T04:33:34;99999.97;;;11.97;63.83
11395;BME280;5753;54.402;10.220;2023-04-01T04:36:00;99991.69;;;12.95;61.75
11395;BME280;5753;54.402;10.220;2023-04-01T04:38:27;99997.50;;;11.04;68.28
11395;BME280;5753;54.402;10.220;2023-04-01T04:40:54;99999.91;;;12.14;63.70
11395;BME280;5753;54.402;10.220;2023-04-01T04:43:20;99993.31;;;13.07;60.36
11395;BME280;5753;54.402;10.220;2023-04-01T04:45:46;100003.94;;;12.64;61.56
11395;BME280;5753;54.402;10.220;2023-04-01T04:48:14;100008.16;;;12.85;60.76
11395;BME280;5753;54.402;10.220;2023-04-01T04:50:47;100017.25;;;13.38;58.73
11395;BME280;5753;54.402;10.220;2023-04-01T04:53:15;100018.78;;;12.33;63.02
11395;BME280;5753;54.402;10.220;2023-04-01T04:55:46;100023.25;;;13.43;60.02
11395;BME280;5753;54.402;10.220;2023-04-01T04:58:13;100017.19;;;11.77;64.46
11395;BME280;5753;54.402;10.220;2023-04-01T05:00:39;100028.97;;;12.60;61.60
11395;BME280;5753;54.402;10.220;2023-04-01T05:03:05;100029.94;;;12.44;63.14
11395;BME280;5753;54.402;10.220;2023-04-01T05:05:31;100026.69;;;11.58;66.80
11395;BME280;5753;54.402;10.220;2023-04-01T05:07:58;100032.44;;;12.56;62.59
11395;BME280;5753;54.402;10.220;2023-04-01T05:10:24;100037.75;;;12.31;62.13
11395;BME280;5753;54.402;10.220;2023-04-01T05:12:50;100034.66;;;13.19;59.94
11395;BME280;5753;54.402;10.220;2023-04-01T05:15:16;100037.66;;;12.50;61.91
11395;BME280;5753;54.402;10.220;2023-04-01T05:17:42;100032.66;;;12.08;62.78
11395;BME280;5753;54.402;10.220;2023-04-01T05:20:08;100038.75;;;11.85;63.60
11395;BME280;5753;54.402;10.220;2023-04-01T05:22:35;100042.41;;;14.11;57.17
11395;BME280;5753;54.402;10.220;2023-04-01T05:25:01;100053.09;;;13.82;57.69
11395;BME280;5753;54.402;10.220;2023-04-01T05:27:27;100053.22;;;12.26;62.21
11395;BME280;5753;54.402;10.220;2023-04-01T05:29:53;100055.59;;;12.78;61.75
11395;BME280;5753;54.402;10.220;2023-04-01T05:32:19;100055.56;;;12.84;60.15
11395;BME280;5753;54.402;10.220;2023-04-01T05:34:46;100058.38;;;12.41;62.18
11395;BME280;5753;54.402;10.220;2023-04-01T05:37:12;100065.94;;;12.82;60.67
11395;BME280;5753;54.402;10.220;2023-04-01T05:39:38;100058.03;;;13.02;60.80
11395;BME280;5753;54.402;10.220;2023-04-01T05:42:08;100069.59;;;12.26;64.01
11395;BME280;5753;54.402;10.220;2023-04-01T05:44:35;100068.53;;;12.78;61.63
11395;BME280;5753;54.402;10.220;2023-04-01T05:47:02;100075.97;;;13.33;60.41
11395;BME280;5753;54.402;10.220;2023-04-01T05:49:28;100073.88;;;12.40;63.20
11395;BME280;5753;54.402;10.220;2023-04-01T05:51:55;100077.00;;;13.01;61.75
11395;BME280;5753;54.402;10.220;2023-04-01T05:54:21;100078.31;;;11.60;63.60
11395;BME280;5753;54.402;10.220;2023-04-01T05:56:47;100086.88;;;12.14;65.04
11395;BME280;5753;54.402;10.220;2023-04-01T05:59:13;100087.56;;;12.58;63.06
11395;BME280;5753;54.402;10.220;2023-04-01T06:01:40;100093.63;;;12.54;62.02
11395;BME280;5753;54.402;10.220;2023-04-01T06:04:06;100095.53;;;11.44;66.58
11395;BME280;5753;54.402;10.220;2023-04-01T06:06:33;100091.22;;;11.72;66.15
11395;BME280;5753;54.402;10.220;2023-04-01T06:09:32;100102.97;;;12.86;62.39
11395;BME280;5753;54.402;10.220;2023-04-01T06:17:52;100117.03;;;12.00;64.53
11395;BME280;5753;54.402;10.220;2023-04-01T06:20:25;100114.03;;;13.08;60.93
11395;BME280;5753;54.402;10.220;2023-04-01T06:45:26;100163.09;;;13.35;59.29
11395;BME280;5753;54.402;10.220;2023-04-01T06:48:15;100172.63;;;13.22;60.55
11395;BME280;5753;54.402;10.220;2023-04-01T06:50:54;100164.19;;;14.12;57.93
11395;BME280;5753;54.402;10.220;2023-04-01T06:56:14;100174.31;;;13.36;60.44
11395;BME280;5753;54.402;10.220;2023-04-01T06:58:45;100181.34;;;13.03;59.91
11395;BME280;5753;54.402;10.220;2023-04-01T07:01:18;100185.41;;;13.53;59.30
11395;BME280;5753;54.402;10.220;2023-04-01T07:03:51;100179.59;;;13.05;59.93
11395;BME280;5753;54.402;10.220;2023-04-01T07:06:30;100193.47;;;12.90;61.63
11395;BME280;5753;54.402;10.220;2023-04-01T07:09:00;100188.94;;;13.40;60.23
11395;BME280;5753;54.402;10.220;2023-04-01T07:11:32;100200.25;;;13.27;59.29
11395;BME280;5753;54.402;10.220;2023-04-01T07:14:17;100201.97;;;13.21;60.54
11395;BME280;5753;54.402;10.220;2023-04-01T07:16:48;100208.25;;;11.77;65.21
11395;BME280;5753;54.402;10.220;2023-04-01T07:19:27;100217.72;;;12.28;63.50
11395;BME280;5753;54.402;10.220;2023-04-01T07:22:19;100220.34;;;11.84;65.29
11395;BME280;5753;54.402;10.220;2023-04-01T07:24:47;100216.03;;;12.34;60.98
11395;BME280;5753;54.402;10.220;2023-04-01T07:27:14;100221.81;;;13.26;59.82
11395;BME280;5753;54.402;10.220;2023-04-01T07:29:41;100228.00;;;12.82;60.63
11395;BME280;5753;54.402;10.220;2023-04-01T07:35:00;100234.91;;;12.71;60.18
11395;BME280;5753;54.402;10.220;2023-04-01T07:46:13;100263.34;;;12.71;60.42
11395;BME280;5753;54.402;10.220;2023-04-01T07:53:55;100270.78;;;10.94;65.03
11395;BME280;5753;54.402;10.220;2023-04-01T08:02:06;100274.47;;;13.05;59.52
11395;BME280;5753;54.402;10.220;2023-04-01T08:10:06;100301.28;;;12.55;61.50
11395;BME280;5753;54.402;10.220;2023-04-01T08:20:53;100319.34;;;12.02;62.23
11395;BME280;5753;54.402;10.220;2023-04-01T08:24:04;100321.03;;;13.17;59.85
11395;BME280;5753;54.402;10.220;2023-04-01T08:26:36;100330.50;;;13.07;58.99
11395;BME280;5753;54.402;10.220;2023-04-01T08:29:31;100321.84;;;11.77;62.70
11395;BME280;5753;54.402;10.220;2023-04-01T08:32:18;100336.59;;;12.27;61.08
11395;BME280;5753;54.402;10.220;2023-04-01T08:34:50;100339.16;;;12.19;61.46
11395;BME280;5753;54.402;10.220;2023-04-01T08:37:30;100346.94;;;12.83;59.18
11395;BME280;5753;54.402;10.220;2023-04-01T08:40:10;100349.47;;;13.20;57.58
11395;BME280;5753;54.402;10.220;2023-04-01T08:45:56;100349.53;;;12.76;60.91
11395;BME280;5753;54.402;10.220;2023-04-01T09:02:05;100376.16;;;11.97;61.40
11395;BME280;5753;54.402;10.220;2023-04-01T09:08:05;100381.34;;;11.94;60.03
11395;BME280;5753;54.402;10.220;2023-04-01T09:14:17;100403.53;;;11.58;62.70
11395;BME280;5753;54.402;10.220;2023-04-01T09:17:23;100396.94;;;12.47;60.61
11395;BME280;5753;54.402;10.220;2023-04-01T09:28:33;100416.69;;;12.27;60.16
11395;BME280;5753;54.402;10.220;2023-04-01T09:37:17;100438.28;;;12.47;59.63
11395;BME280;5753;54.402;10.220;2023-04-01T09:40:15;100425.91;;;11.58;60.40
11395;BME280;5753;54.402;10.220;2023-04-01T09:42:56;100448.50;;;12.06;60.69
11395;BME280;5753;54.402;10.220;2023-04-01T09:45:46;100450.91;;;11.71;60.86
11395;BME280;5753;54.402;10.220;2023-04-01T10:00:08;100477.03;;;12.32;58.58
11395;BME280;5753;54.402;10.220;2023-04-01T10:05:46;100474.31;;;11.95;58.77
11395;BME280;5753;54.402;10.220;2023-04-01T10:11:28;100487.41;;;12.50;57.74
11395;BME280;5753;54.402;10.220;2023-04-01T10:17:44;100486.63;;;13.17;56.23
11395;BME280;5753;54.402;10.220;2023-04-01T10:25:48;100505.63;;;13.25;55.67
11395;BME280;5753;54.402;10.220;2023-04-01T10:28:42;100509.94;;;13.46;56.24
11395;BME280;5753;54.402;10.220;2023-04-01T10:34:19;100526.28;;;12.78;55.43
11395;BME280;5753;54.402;10.220;2023-04-01T10:36:58;100522.84;;;13.03;55.62
11395;BME280;5753;54.402;10.220;2023-04-01T10:39:33;100527.13;;;13.86;53.89
11395;BME280;5753;54.402;10.220;2023-04-01T10:45:02;100539.47;;;11.59;57.56
11395;BME280;5753;54.402;10.220;2023-04-01T10:59:01;100546.97;;;12.93;55.15
11395;BME280;5753;54.402;10.220;2023-04-01T11:01:55;100559.63;;;12.17;57.31
11395;BME280;5753;54.402;10.220;2023-04-01T11:10:57;100554.66;;;12.66;56.05
11395;BME280;5753;54.402;10.220;2023-04-01T11:19:12;100575.34;;;12.66;54.97
11395;BME280;5753;54.402;10.220;2023-04-01T11:30:20;100596.13;;;14.12;51.06
11395;BME280;5753;54.402;10.220;2023-04-01T11:33:05;100591.03;;;13.48;52.82
11395;BME280;5753;54.402;10.220;2023-04-01T11:44:24;100612.53;;;13.15;51.91
11395;BME280;5753;54.402;10.220;2023-04-01T11:47:18;100603.09;;;13.70;51.56
11395;BME280;5753;54.402;10.220;2023-04-01T11:55:25;100617.78;;;13.67;51.72
11395;BME280;5753;54.402;10.220;2023-04-01T12:06:51;100635.91;;;13.44;51.17
11395;BME280;5753;54.402;10.220;2023-04-01T12:12:32;100650.59;;;13.31;52.00
11395;BME280;5753;54.402;10.220;2023-04-01T12:15:22;100643.69;;;13.67;50.48
11395;BME280;5753;54.402;10.220;2023-04-01T12:18:16;100653.94;;;13.04;50.96
11395;BME280;5753;54.402;10.220;2023-04-01T12:20:51;100657.50;;;13.53;50.51
11395;BME280;5753;54.402;10.220;2023-04-01T12:34:59;100693.06;;;12.09;53.75
11395;BME280;5753;54.402;10.220;2023-04-01T13:13:22;100746.34;;;13.30;49.51
11395;BME280;5753;54.402;10.220;2023-04-01T13:16:02;100742.47;;;12.51;50.48
11395;BME280;5753;54.402;10.220;2023-04-01T13:18:43;100751.66;;;13.88;48.42
11395;BME280;5753;54.402;10.220;2023-04-01T13:24:18;100762.25;;;12.46;50.45
11395;BME280;5753;54.402;10.220;2023-04-01T13:30:39;100778.66;;;12.48;50.50
11395;BME280;5753;54.402;10.220;2023-04-01T13:50:34;100795.53;;;13.33;47.52
11395;BME280;5753;54.402;10.220;2023-04-01T14:01:39;100817.59;;;11.77;50.56
11395;BME280;5753;54.402;10.220;2023-04-01T14:04:40;100822.91;;;12.94;49.32
11395;BME280;5753;54.402;10.220;2023-04-01T14:07:29;100821.59;;;13.74;47.37
11395;BME280;5753;54.402;10.220;2023-04-01T14:21:21;100835.50;;;14.26;45.32
11395;BME280;5753;54.402;10.220;2023-04-01T14:32:34;100864.00;;;14.20;44.37
11395;BME280;5753;54.402;10.220;2023-04-01T14:35:44;100869.19;;;14.38;44.69
11395;BME280;5753;54.402;10.220;2023-04-01T14:38:28;100869.16;;;12.53;47.40
11395;BME280;5753;54.402;10.220;2023-04-01T14:41:23;100868.25;;;11.67;49.73
11395;BME280;5753;54.402;10.220;2023-04-01T14:44:05;100878.81;;;12.74;47.56
11395;BME280;5753;54.402;10.220;2023-04-01T14:46:59;100879.75;;;12.83;47.16
11395;BME280;5753;54.402;10.220;2023-04-01T14:49:42;100877.34;;;13.12;46.65
11395;BME280;5753;54.402;10.220;2023-04-01T14:52:17;100887.97;;;13.55;45.45
11395;BME280;5753;54.402;10.220;2023-04-01T14:54:50;100883.03;;;14.28;44.85
11395;BME280;5753;54.402;10.220;2023-04-01T14:57:31;100887.56;;;12.91;46.31
11395;BME280;5753;54.402;10.220;2023-04-01T15:00:12;100899.50;;;12.77;46.81
11395;BME280;5753;54.402;10.220;2023-04-01T15:02:59;100903.91;;;12.82;46.35
11395;BME280;5753;54.402;10.220;2023-04-01T15:05:47;100909.84;;;12.74;45.94
11395;BME280;5753;54.402;10.220;2023-04-01T15:08:31;100915.25;;;13.04;45.44
11395;BME280;5753;54.402;10.220;2023-04-01T15:13:56;100917.88;;;13.10;45.73
11395;BME280;5753;54.402;10.220;2023-04-01T15:16:59;100923.94;;;13.15;44.83
11395;BME280;5753;54.402;10.220;2023-04-01T15:19:31;100923.63;;;12.71;45.57
11395;BME280;5753;54.402;10.220;2023-04-01T15:22:33;100922.63;;;12.55;45.90
11395;BME280;5753;54.402;10.220;2023-04-01T15:25:19;100930.59;;;12.80;45.16
11395;BME280;5753;54.402;10.220;2023-04-01T15:41:24;100952.78;;;17.38;35.97
11395;BME280;5753;54.402;10.220;2023-04-01T15:43:55;100945.28;;;19.09;34.25
11395;BME280;5753;54.402;10.220;2023-04-01T15:55:56;100971.94;;;16.04;36.88
11395;BME280;5753;54.402;10.220;2023-04-01T16:03:35;100992.47;;;16.68;35.68
11395;BME280;5753;54.402;10.220;2023-04-01T16:06:24;100999.69;;;16.11;36.26
11395;BME280;5753;54.402;10.220;2023-04-01T16:09:04;100998.97;;;15.13;38.40
11395;BME280;5753;54.402;10.220;2023-04-01T16:14:18;101004.28;;;18.02;34.22
11395;BME280;5753;54.402;10.220;2023-04-01T16:19:44;101019.69;;;15.91;37.11
11395;BME280;5753;54.402;10.220;2023-04-01T16:22:37;101024.66;;;18.39;33.97
11395;BME280;5753;54.402;10.220;2023-04-01T16:25:26;101023.50;;;17.92;32.76
11395;BME280;5753;54.402;10.220;2023-04-01T16:28:16;101025.28;;;16.90;34.44
11395;BME280;5753;54.402;10.220;2023-04-01T16:36:12;101050.50;;;16.82;33.81
11395;BME280;5753;54.402;10.220;2023-04-01T16:39:01;101046.47;;;18.35;32.03
11395;BME280;5753;54.402;10.220;2023-04-01T16:41:33;101052.31;;;17.81;32.71
11395;BME280;5753;54.402;10.220;2023-04-01T16:44:13;101054.19;;;16.32;34.69
11395;BME280;5753;54.402;10.220;2023-04-01T16:46:54;101057.84;;;15.22;35.93
11395;BME280;5753;54.402;10.220;2023-04-01T16:54:53;101077.81;;;19.01;30.39
11395;BME280;5753;54.402;10.220;2023-04-01T17:06:18;101097.31;;;16.91;34.31
11395;BME280;5753;54.402;10.220;2023-04-01T17:11:19;101109.72;;;16.22;34.39
11395;BME280;5753;54.402;10.220;2023-04-01T17:14:01;101118.38;;;15.02;34.91
11395;BME280;5753;54.402;10.220;2023-04-01T17:16:52;101127.19;;;13.71;37.32
11395;BME280;5753;54.402;10.220;2023-04-01T17:23:00;101149.94;;;11.81;41.20
11395;BME280;5753;54.402;10.220;2023-04-01T17:25:34;101152.47;;;14.01;37.73
11395;BME280;5753;54.402;10.220;2023-04-01T17:31:05;101160.47;;;11.93;40.55
11395;BME280;5753;54.402;10.220;2023-04-01T17:36:45;101172.13;;;12.26;40.66
11395;BME280;5753;54.402;10.220;2023-04-01T17:42:06;101183.06;;;11.55;41.37
11395;BME280;5753;54.402;10.220;2023-04-01T17:44:38;101182.44;;;11.22;41.79
11395;BME280;5753;54.402;10.220;2023-04-01T17:47:31;101197.00;;;11.18;42.33
11395;BME280;5753;54.402;10.220;2023-04-01T17:51:06;101191.38;;;11.87;41.18
11395;BME280;5753;54.402;10.220;2023-04-01T17:58:45;101220.94;;;12.05;40.90
11395;BME280;5753;54.402;10.220;2023-04-01T18:07:24;101235.34;;;11.44;41.35
11395;BME280;5753;54.402;10.220;2023-04-01T18:10:03;101232.16;;;10.72;42.18
11395;BME280;5753;54.402;10.220;2023-04-01T18:20:54;101258.81;;;11.14;42.54
11395;BME280;5753;54.402;10.220;2023-04-01T18:23:47;101271.41;;;11.41;42.12
11395;BME280;5753;54.402;10.220;2023-04-01T18:26:32;101268.44;;;10.82;43.49
11395;BME280;5753;54.402;10.220;2023-04-01T18:29:32;101277.25;;;10.52;42.99
11395;BME280;5753;54.402;10.220;2023-04-01T18:32:08;101285.44;;;11.55;41.00
11395;BME280;5753;54.402;10.220;2023-04-01T18:34:50;101286.97;;;11.44;41.62
11395;BME280;5753;54.402;10.220;2023-04-01T18:37:42;101294.28;;;11.24;42.77
11395;BME280;5753;54.402;10.220;2023-04-01T18:40:28;101298.81;;;11.79;42.03
11395;BME280;5753;54.402;10.220;2023-04-01T18:43:16;101300.94;;;10.73;43.55
11395;BME280;5753;54.402;10.220;2023-04-01T18:45:54;101305.69;;;11.35;42.15
11395;BME280;5753;54.402;10.220;2023-04-01T18:48:33;101313.22;;;11.68;42.33
11395;BME280;5753;54.402;10.220;2023-04-01T18:54:11;101327.16;;;10.92;43.79
11395;BME280;5753;54.402;10.220;2023-04-01T18:56:43;101328.25;;;11.44;42.85
11395;BME280;5753;54.402;10.220;2023-04-01T18:59:25;101337.50;;;11.34;43.14
11395;BME280;5753;54.402;10.220;2023-04-01T19:02:25;101332.25;;;11.29;43.90
11395;BME280;5753;54.402;10.220;2023-04-01T19:05:02;101336.59;;;10.55;44.69
11395;BME280;5753;54.402;10.220;2023-04-01T19:16:13;101345.88;;;10.85;45.37
11395;BME280;5753;54.402;10.220;2023-04-01T19:21:37;101361.16;;;11.15;44.24
11395;BME280;5753;54.402;10.220;2023-04-01T19:35:52;101376.94;;;10.53;44.65
11395;BME280;5753;54.402;10.220;2023-04-01T19:38:40;101376.63;;;11.13;44.06
11395;BME280;5753;54.402;10.220;2023-04-01T19:41:36;101390.78;;;10.93;43.46
11395;BME280;5753;54.402;10.220;2023-04-01T19:47:16;101391.91;;;11.43;43.27
11395;BME280;5753;54.402;10.220;2023-04-01T19:49:59;101407.97;;;10.92;43.76
11395;BME280;5753;54.402;10.220;2023-04-01T19:52:33;101404.44;;;10.89;44.13
11395;BME280;5753;54.402;10.220;2023-04-01T19:55:04;101408.97;;;11.37;43.47
11395;BME280;5753;54.402;10.220;2023-04-01T19:57:46;101416.34;;;10.84;44.08
11395;BME280;5753;54.402;10.220;2023-04-01T20:00:36;101421.09;;;11.80;41.35
11395;BME280;5753;54.402;10.220;2023-04-01T20:06:14;101426.63;;;11.18;42.19
11395;BME280;5753;54.402;10.220;2023-04-01T20:11:46;101437.16;;;11.29;41.55
11395;BME280;5753;54.402;10.220;2023-04-01T20:19:58;101449.53;;;11.81;41.46
11395;BME280;5753;54.402;10.220;2023-04-01T20:22:30;101451.03;;;12.60;40.08
11395;BME280;5753;54.402;10.220;2023-04-01T20:41:44;101484.75;;;12.20;40.20
11395;BME280;5753;54.402;10.220;2023-04-01T20:44:41;101495.16;;;12.70;39.47
11395;BME280;5753;54.402;10.220;2023-04-01T20:47:22;101497.53;;;11.73;41.46
11395;BME280;5753;54.402;10.220;2023-04-01T20:50:17;101502.03;;;12.22;41.24
11395;BME280;5753;54.402;10.220;2023-04-01T20:58:50;101517.22;;;12.49;40.76
11395;BME280;5753;54.402;10.220;2023-04-01T21:01:35;101519.81;;;12.07;41.62
11395;BME280;5753;54.402;10.220;2023-04-01T21:06:55;101532.53;;;12.39;40.45
11395;BME280;5753;54.402;10.220;2023-04-01T21:14:58;101539.53;;;10.94;41.99
11395;BME280;5753;54.402;10.220;2023-04-01T21:17:43;101551.19;;;12.25;40.04
11395;BME280;5753;54.402;10.220;2023-04-01T21:29:29;101561.66;;;11.53;40.74
11395;BME280;5753;54.402;10.220;2023-04-01T21:35:35;101570.91;;;11.81;40.65
11395;BME280;5753;54.402;10.220;2023-04-01T21:38:32;101578.06;;;11.57;40.95
11395;BME280;5753;54.402;10.220;2023-04-01T21:43:37;101584.22;;;11.27;40.41
11395;BME280;5753;54.402;10.220;2023-04-01T22:08:38;101622.44;;;12.13;40.53
11395;BME280;5753;54.402;10.220;2023-04-01T22:14:26;101633.78;;;11.47;41.48